createdAt,value
2022-08-07T00:00:07.755Z,15.08
2022-08-07T00:02:40.629Z,15.01
2022-08-07T00:05:08.807Z,15.00
2022-08-07T00:07:40.389Z,14.96
2022-08-07T00:10:26.115Z,14.92
2022-08-07T00:12:57.601Z,14.90
2022-08-07T00:15:25.890Z,14.85
2022-08-07T00:18:05.786Z,14.81
2022-08-07T00:20:34.364Z,14.78
2022-08-07T00:23:02.949Z,14.75
2022-08-07T00:25:37.236Z,14.72
2022-08-07T00:28:08.077Z,14.68
2022-08-07T00:30:37.714Z,14.67
2022-08-07T00:33:04.975Z,14.66
2022-08-07T00:35:35.159Z,14.65
2022-08-07T00:38:04.452Z,14.63
2022-08-07T00:40:36.606Z,14.61
2022-08-07T00:44:01.374Z,14.53
2022-08-07T00:45:59.363Z,14.47
2022-08-07T00:48:31.049Z,14.44
2022-08-07T00:51:00.866Z,14.41
2022-08-07T00:53:39.161Z,14.35
2022-08-07T00:56:15.844Z,14.33
2022-08-07T00:58:46.932Z,14.31
2022-08-07T01:01:17.898Z,14.30
2022-08-07T01:03:55.299Z,14.27
2022-08-07T01:06:24.580Z,14.21
2022-08-07T01:08:53.929Z,14.17
2022-08-07T01:12:04.969Z,14.15
2022-08-07T01:14:10.046Z,14.11
2022-08-07T01:16:37.792Z,14.10
2022-08-07T01:19:18.045Z,14.05
2022-08-07T01:21:49.918Z,14.04
2022-08-07T01:24:21.787Z,14.00
2022-08-07T01:26:52.187Z,13.96
2022-08-07T01:29:22.039Z,13.93
2022-08-07T01:31:49.689Z,13.91
2022-08-07T01:34:18.694Z,13.91
2022-08-07T01:36:51.390Z,13.88
2022-08-07T01:39:26.968Z,13.86
2022-08-07T01:42:38.473Z,13.83
2022-08-07T01:44:54.683Z,13.80
2022-08-07T01:48:29.183Z,13.78
2022-08-07T01:50:09.538Z,13.76
2022-08-07T01:52:38.891Z,13.72
2022-08-07T01:55:22.292Z,13.72
2022-08-07T01:58:06.174Z,13.70
2022-08-07T02:00:49.288Z,13.67
2022-08-07T02:03:26.528Z,13.65
2022-08-07T02:06:31.484Z,13.63
2022-08-07T02:09:00.677Z,13.61
2022-08-07T02:12:04.254Z,13.60
2022-08-07T02:14:40.931Z,13.61
2022-08-07T02:17:10.961Z,13.59
2022-08-07T02:20:06.993Z,13.58
2022-08-07T02:22:30.576Z,13.55
2022-08-07T02:24:59.052Z,13.53
2022-08-07T02:27:34.365Z,13.51
2022-08-07T02:30:03.717Z,13.50
2022-08-07T02:32:36.317Z,13.50
2022-08-07T02:35:09.468Z,13.50
2022-08-07T02:37:44.210Z,13.49
2022-08-07T02:40:30.880Z,13.47
2022-08-07T02:43:00.438Z,13.48
2022-08-07T02:45:59.297Z,13.45
2022-08-07T02:48:17.651Z,13.43
2022-08-07T02:50:49.019Z,13.39
2022-08-07T02:53:27.354Z,13.41
2022-08-07T02:56:04.394Z,13.38
2022-08-07T02:58:34.545Z,13.36
2022-08-07T03:01:03.875Z,13.33
2022-08-07T03:03:49.130Z,13.31
2022-08-07T03:06:25.510Z,13.31
2022-08-07T03:09:00.057Z,13.28
2022-08-07T03:11:28.174Z,13.28
2022-08-07T03:13:57.591Z,13.25
2022-08-07T03:16:29.056Z,13.23
2022-08-07T03:19:01.603Z,13.23
2022-08-07T03:21:29.128Z,13.22
2022-08-07T03:24:17.850Z,13.20
2022-08-07T03:26:58.066Z,13.18
2022-08-07T03:29:36.665Z,13.14
2022-08-07T03:32:12.762Z,13.10
2022-08-07T03:34:47.369Z,13.07
2022-08-07T03:37:32.724Z,13.07
2022-08-07T03:40:15.427Z,13.06
2022-08-07T03:42:43.874Z,13.05
2022-08-07T03:45:12.016Z,13.02
2022-08-07T03:47:47.822Z,13.01
2022-08-07T03:50:23.138Z,12.99
2022-08-07T03:52:52.320Z,12.97
2022-08-07T03:55:19.507Z,12.96
2022-08-07T03:58:32.638Z,12.94
2022-08-07T04:00:37.158Z,12.92
2022-08-07T04:03:05.322Z,12.92
2022-08-07T04:05:39.318Z,12.91
2022-08-07T04:08:11.724Z,12.94
2022-08-07T04:10:42.370Z,12.94
2022-08-07T04:13:15.521Z,12.93
2022-08-07T04:15:49.144Z,12.92
2022-08-07T04:18:58.219Z,12.92
2022-08-07T04:21:03.472Z,12.91
2022-08-07T04:23:44.004Z,12.91
2022-08-07T04:26:22.788Z,12.89
2022-08-07T04:28:52.176Z,12.88
2022-08-07T04:31:20.004Z,12.88
2022-08-07T04:34:16.717Z,12.86
2022-08-07T04:36:44.103Z,12.83
2022-08-07T04:39:12.592Z,12.82
2022-08-07T04:41:39.366Z,12.81
2022-08-07T04:44:17.911Z,12.80
2022-08-07T04:47:08.353Z,12.79
2022-08-07T04:49:40.022Z,12.78
2022-08-07T04:52:18.451Z,12.80
2022-08-07T04:55:15.655Z,12.79
2022-08-07T04:58:27.405Z,12.77
2022-08-07T05:01:18.039Z,12.76
2022-08-07T05:04:12.479Z,12.75
2022-08-07T05:07:01.447Z,12.75
2022-08-07T05:10:11.729Z,12.73
2022-08-07T05:12:53.649Z,12.73
2022-08-07T05:15:27.104Z,12.73
2022-08-07T05:18:14.909Z,12.72
2022-08-07T05:20:48.561Z,12.72
2022-08-07T05:23:23.160Z,12.71
2022-08-07T05:26:13.647Z,12.71
2022-08-07T05:28:48.513Z,12.73
2022-08-07T05:31:18.220Z,12.75
2022-08-07T05:34:01.253Z,12.74
2022-08-07T05:36:35.690Z,12.76
2022-08-07T05:40:05.988Z,12.78
2022-08-07T05:42:02.423Z,12.79
2022-08-07T05:44:35.305Z,12.82
2022-08-07T05:47:18.395Z,12.86
2022-08-07T05:49:49.790Z,12.90
2022-08-07T05:52:32.490Z,12.94
2022-08-07T05:55:02.965Z,12.98
2022-08-07T05:57:42.378Z,13.01
2022-08-07T06:00:16.047Z,13.05
2022-08-07T06:02:49.425Z,13.09
2022-08-07T06:05:17.424Z,13.13
2022-08-07T06:08:29.320Z,13.17
2022-08-07T06:10:34.925Z,13.23
2022-08-07T06:13:02.381Z,13.27
2022-08-07T06:15:39.512Z,13.30
2022-08-07T06:18:14.045Z,13.35
2022-08-07T06:20:49.913Z,13.41
2022-08-07T06:24:36.975Z,13.45
2022-08-07T06:26:19.085Z,13.49
2022-08-07T06:28:53.910Z,13.53
2022-08-07T06:31:24.158Z,13.57
2022-08-07T06:34:05.698Z,13.62
2022-08-07T06:36:35.238Z,13.66
2022-08-07T06:40:16.739Z,13.70
2022-08-07T06:42:02.351Z,13.75
2022-08-07T06:44:34.211Z,13.78
2022-08-07T06:47:12.049Z,13.81
2022-08-07T06:49:51.902Z,13.85
2022-08-07T06:52:31.907Z,13.90
2022-08-07T06:55:32.412Z,13.93
2022-08-07T06:58:00.769Z,13.97
2022-08-07T07:00:31.317Z,13.99
2022-08-07T07:03:01.371Z,14.05
2022-08-07T07:06:03.685Z,14.11
2022-08-07T07:08:28.852Z,14.15
2022-08-07T07:10:57.296Z,14.21
2022-08-07T07:13:56.031Z,14.26
2022-08-07T07:16:30.412Z,14.29
2022-08-07T07:19:11.432Z,14.31
2022-08-07T07:22:12.021Z,14.34
2022-08-07T07:24:42.976Z,14.38
2022-08-07T07:27:13.635Z,14.44
2022-08-07T07:30:09.118Z,14.48
2022-08-07T07:32:38.976Z,14.54
2022-08-07T07:35:10.860Z,14.55
2022-08-07T07:37:44.489Z,14.59
2022-08-07T07:40:18.620Z,14.61
2022-08-07T07:42:54.196Z,14.67
2022-08-07T07:46:37.704Z,14.74
2022-08-07T07:48:35.116Z,14.79
2022-08-07T07:51:07.863Z,14.83
2022-08-07T07:53:51.221Z,14.85
2022-08-07T07:56:30.183Z,14.89
2022-08-07T07:59:01.606Z,14.93
2022-08-07T08:02:04.717Z,14.97
2022-08-07T08:04:20.368Z,15.02
2022-08-07T08:06:54.247Z,15.10
2022-08-07T08:09:29.643Z,15.16
2022-08-07T08:12:02.003Z,15.26
2022-08-07T08:14:36.959Z,15.32
2022-08-07T08:17:56.499Z,15.40
2022-08-07T08:20:17.570Z,15.50
2022-08-07T08:23:08.473Z,15.63
2022-08-07T08:25:58.235Z,15.71
2022-08-07T08:28:38.656Z,15.81
2022-08-07T08:31:16.074Z,15.90
2022-08-07T08:33:49.337Z,15.98
2022-08-07T08:36:29.697Z,16.10
2022-08-07T08:39:01.625Z,16.19
2022-08-07T08:41:57.819Z,16.29
2022-08-07T08:44:44.573Z,16.35
2022-08-07T08:47:22.291Z,16.39
2022-08-07T08:50:17.625Z,16.50
2022-08-07T08:53:04.151Z,16.63
2022-08-07T08:55:54.630Z,16.75
2022-08-07T08:58:50.457Z,17.05
2022-08-07T09:01:40.053Z,17.14
2022-08-07T09:04:26.056Z,17.39
2022-08-07T09:07:16.793Z,17.50
2022-08-07T09:10:08.175Z,17.66
2022-08-07T09:12:43.131Z,17.68
2022-08-07T09:16:23.615Z,17.88
2022-08-07T09:19:03.617Z,17.98
2022-08-07T09:22:09.649Z,18.07
2022-08-07T09:24:58.619Z,18.21
2022-08-07T09:27:59.740Z,18.40
2022-08-07T09:30:33.390Z,18.35
2022-08-07T09:33:52.801Z,18.43
2022-08-07T09:36:22.892Z,18.51
2022-08-07T09:39:55.024Z,18.63
2022-08-07T09:42:50.398Z,18.98
2022-08-07T09:47:25.074Z,19.13
2022-08-07T09:50:01.160Z,19.11
2022-08-07T09:52:34.186Z,19.33
2022-08-07T09:55:28.808Z,19.46
2022-08-07T09:58:32.491Z,19.52
2022-08-07T10:01:53.695Z,19.72
2022-08-07T10:04:17.518Z,20.00
2022-08-07T10:07:25.863Z,20.24
2022-08-07T10:10:21.668Z,20.47
2022-08-07T10:14:00.918Z,20.52
2022-08-07T10:16:29.241Z,20.75
2022-08-07T10:19:14.272Z,20.73
2022-08-07T10:22:15.341Z,20.66
2022-08-07T10:24:52.308Z,20.82
2022-08-07T10:27:51.434Z,20.90
2022-08-07T10:30:51.802Z,20.95
2022-08-07T10:34:05.572Z,21.04
2022-08-07T10:36:36.275Z,21.16
2022-08-07T10:39:41.285Z,21.31
2022-08-07T10:42:37.085Z,21.55
2022-08-07T10:45:43.930Z,21.44
2022-08-07T10:48:36.686Z,21.54
2022-08-07T10:51:39.102Z,21.58
2022-08-07T10:54:27.320Z,21.83
2022-08-07T10:57:39.446Z,21.94
2022-08-07T11:00:39.507Z,21.98
2022-08-07T11:03:12.573Z,22.15
2022-08-07T11:05:55.130Z,22.12
2022-08-07T11:08:46.130Z,21.78
2022-08-07T11:11:23.139Z,21.83
2022-08-07T11:14:56.978Z,22.10
2022-08-07T11:17:01.883Z,22.54
2022-08-07T11:19:48.695Z,22.85
2022-08-07T11:22:45.535Z,22.49
2022-08-07T11:25:42.446Z,22.49
2022-08-07T11:28:24.839Z,22.79
2022-08-07T11:30:55.893Z,23.35
2022-08-07T11:33:59.752Z,23.75
2022-08-07T11:37:03.364Z,23.84
2022-08-07T11:39:59.057Z,23.41
2022-08-07T11:42:30.688Z,24.04
2022-08-07T11:45:15.922Z,25.31
2022-08-07T11:48:26.736Z,25.48
2022-08-07T11:51:41.623Z,24.55
2022-08-07T11:54:30.580Z,24.25
2022-08-07T11:57:57.902Z,24.36
2022-08-07T12:00:21.238Z,25.17
2022-08-07T12:03:45.142Z,26.26
2022-08-07T12:06:38.918Z,27.63
2022-08-07T12:09:28.766Z,27.90
2022-08-07T12:12:12.527Z,27.12
2022-08-07T12:15:17.430Z,26.45
2022-08-07T12:18:14.134Z,25.83
2022-08-07T12:21:01.178Z,27.02
2022-08-07T12:24:05.450Z,26.48
2022-08-07T12:26:53.778Z,25.71
2022-08-07T12:29:52.547Z,25.18
2022-08-07T12:32:40.665Z,26.00
2022-08-07T12:35:13.694Z,27.61
2022-08-07T12:38:11.558Z,29.54
2022-08-07T12:40:51.030Z,29.65
2022-08-07T12:44:02.068Z,28.68
2022-08-07T12:46:40.992Z,27.66
2022-08-07T12:49:25.452Z,26.88
2022-08-07T12:52:18.093Z,27.08
2022-08-07T12:54:54.897Z,27.63
2022-08-07T12:57:29.853Z,27.91
2022-08-07T13:00:20.674Z,29.28
2022-08-07T13:03:13.146Z,30.44
2022-08-07T13:06:03.087Z,31.59
2022-08-07T13:08:56.583Z,32.75
2022-08-07T13:12:02.428Z,33.53
2022-08-07T13:14:58.586Z,32.35
2022-08-07T13:17:40.876Z,32.71
2022-08-07T13:20:46.675Z,34.02
2022-08-07T13:24:01.849Z,34.84
2022-08-07T13:26:25.533Z,34.30
2022-08-07T13:29:03.886Z,34.85
2022-08-07T13:31:55.093Z,35.47
2022-08-07T13:34:37.894Z,36.07
2022-08-07T13:37:20.116Z,36.27
2022-08-07T13:40:36.487Z,36.89
2022-08-07T13:42:41.272Z,38.03
2022-08-07T13:46:07.891Z,38.83
2022-08-07T13:48:06.734Z,39.52
2022-08-07T13:50:44.747Z,40.12
2022-08-07T13:53:35.955Z,40.28
2022-08-07T13:56:36.119Z,40.54
2022-08-07T13:59:12.805Z,40.60
2022-08-07T14:02:12.840Z,38.95
2022-08-07T14:04:55.321Z,37.92
2022-08-07T14:07:27.594Z,39.12
2022-08-07T14:10:21.557Z,40.40
2022-08-07T14:12:55.663Z,41.55
2022-08-07T14:15:40.478Z,41.63
2022-08-07T14:18:31.122Z,40.91
2022-08-07T14:21:21.005Z,38.85
2022-08-07T14:24:28.302Z,37.59
2022-08-07T14:28:09.478Z,37.79
2022-08-07T14:30:08.194Z,39.72
2022-08-07T14:32:48.335Z,40.01
2022-08-07T14:35:42.845Z,37.38
2022-08-07T14:38:26.851Z,35.18
2022-08-07T14:41:04.220Z,35.46
2022-08-07T14:43:58.779Z,34.73
2022-08-07T14:46:30.726Z,36.43
2022-08-07T14:49:17.343Z,39.11
2022-08-07T14:54:42.899Z,35.91
2022-08-07T14:57:14.891Z,35.11
2022-08-07T15:02:39.646Z,38.76
2022-08-07T15:07:58.521Z,37.40
2022-08-07T15:10:30.018Z,39.44
2022-08-07T15:13:25.272Z,40.53
2022-08-07T15:16:00.185Z,39.36
2022-08-07T15:18:40.122Z,37.31
2022-08-07T15:25:14.522Z,36.94
2022-08-07T15:27:11.389Z,38.82
2022-08-07T15:30:10.162Z,41.00
2022-08-07T15:36:01.947Z,42.79
2022-08-07T15:38:30.202Z,40.59
2022-08-07T15:41:23.535Z,41.76
2022-08-07T15:44:07.058Z,38.97
2022-08-07T15:46:38.429Z,38.55
2022-08-07T15:49:15.294Z,38.73
2022-08-07T15:54:34.021Z,41.16
2022-08-07T15:57:03.142Z,40.54
2022-08-07T15:59:39.523Z,38.25
2022-08-07T16:02:22.301Z,36.32
2022-08-07T16:04:58.016Z,35.80
2022-08-07T16:08:28.286Z,35.95
2022-08-07T16:10:25.298Z,34.53
2022-08-07T16:13:58.099Z,35.53
2022-08-07T16:16:48.876Z,35.67
2022-08-07T16:20:00.208Z,38.40
2022-08-07T16:22:55.804Z,40.94
2022-08-07T16:25:52.534Z,41.36
2022-08-07T16:30:06.125Z,40.32
2022-08-07T16:31:57.631Z,38.53
2022-08-07T16:34:32.645Z,39.62
2022-08-07T16:38:06.140Z,37.82
2022-08-07T16:41:02.216Z,35.42
2022-08-07T16:44:03.860Z,37.83
2022-08-07T16:47:07.860Z,39.36
2022-08-07T16:50:27.973Z,41.16
2022-08-07T16:52:52.516Z,42.97
2022-08-07T16:55:48.077Z,43.81
2022-08-07T16:58:22.456Z,44.58
2022-08-07T17:01:15.814Z,44.35
2022-08-07T17:04:00.096Z,44.51
2022-08-07T17:07:03.017Z,44.54
2022-08-07T17:10:30.158Z,44.35
2022-08-07T17:13:22.880Z,44.61
2022-08-07T17:16:08.547Z,42.32
2022-08-07T17:18:47.280Z,40.35
2022-08-07T17:21:22.774Z,41.64
2022-08-07T17:24:01.895Z,42.16
2022-08-07T17:26:50.072Z,41.34
2022-08-07T17:30:15.025Z,39.46
2022-08-07T17:32:52.011Z,36.29
2022-08-07T17:35:51.347Z,35.96
2022-08-07T17:38:34.303Z,38.28
2022-08-07T17:42:01.570Z,39.56
2022-08-07T17:44:13.729Z,40.58
2022-08-07T17:47:16.507Z,41.29
2022-08-07T17:50:03.322Z,41.48
2022-08-07T17:52:43.450Z,40.99
2022-08-07T17:55:13.317Z,38.59
2022-08-07T17:58:09.679Z,34.71
2022-08-07T18:00:57.805Z,32.35
2022-08-07T18:03:54.079Z,30.79
2022-08-07T18:06:38.453Z,29.65
2022-08-07T18:09:08.718Z,28.87
2022-08-07T18:12:16.822Z,28.35
2022-08-07T18:14:46.161Z,27.96
2022-08-07T18:18:47.072Z,27.48
2022-08-07T18:21:08.958Z,26.88
2022-08-07T18:23:58.341Z,26.49
2022-08-07T18:26:44.932Z,26.32
2022-08-07T18:30:05.607Z,26.14
2022-08-07T18:32:46.372Z,25.91
2022-08-07T18:35:22.707Z,25.82
2022-08-07T18:38:58.182Z,25.67
2022-08-07T18:41:16.818Z,25.36
2022-08-07T18:44:25.967Z,25.18
2022-08-07T18:47:07.943Z,24.95
2022-08-07T18:50:19.123Z,24.84
2022-08-07T18:53:05.853Z,24.71
2022-08-07T18:55:56.024Z,24.57
2022-08-07T18:58:36.422Z,24.42
2022-08-07T19:02:17.162Z,24.35
2022-08-07T19:04:30.894Z,24.18
2022-08-07T19:07:08.853Z,24.15
2022-08-07T19:09:56.867Z,24.15
2022-08-07T19:12:49.174Z,24.09
2022-08-07T19:16:04.354Z,24.03
2022-08-07T19:18:53.510Z,23.98
2022-08-07T19:21:44.350Z,23.91
2022-08-07T19:24:44.551Z,23.85
2022-08-07T19:28:58.376Z,23.80
2022-08-07T19:31:04.785Z,23.75
2022-08-07T19:33:02.234Z,23.69
2022-08-07T19:35:38.037Z,23.61
2022-08-07T19:38:17.122Z,23.57
2022-08-07T19:40:50.038Z,23.55
2022-08-07T19:43:49.060Z,23.57
2022-08-07T19:46:26.767Z,23.55
2022-08-07T19:49:08.522Z,23.51
2022-08-07T19:51:52.187Z,23.51
2022-08-07T19:54:33.414Z,23.49
2022-08-07T19:58:01.762Z,23.42
2022-08-07T20:00:08.764Z,23.33
2022-08-07T20:02:52.187Z,23.27
2022-08-07T20:05:28.212Z,23.20
2022-08-07T20:08:02.448Z,23.13
2022-08-07T20:10:54.253Z,23.06
2022-08-07T20:13:40.040Z,22.94
2022-08-07T20:16:15.843Z,22.86
2022-08-07T20:19:00.030Z,22.80
2022-08-07T20:21:41.760Z,22.77
2022-08-07T20:24:35.572Z,22.68
2022-08-07T20:27:11.769Z,22.66
2022-08-07T20:29:58.468Z,22.64
2022-08-07T20:32:40.127Z,22.61
2022-08-07T20:35:16.280Z,22.58
2022-08-07T20:37:57.743Z,22.51
2022-08-07T20:40:33.480Z,22.41
2022-08-07T20:43:03.361Z,22.39
2022-08-07T20:46:27.011Z,22.37
2022-08-07T20:48:30.815Z,22.38
2022-08-07T20:51:04.142Z,22.42
2022-08-07T20:54:03.110Z,22.41
2022-08-07T20:56:28.140Z,22.48
2022-08-07T20:58:59.136Z,22.55
2022-08-07T21:01:29.814Z,22.55
2022-08-07T21:04:22.586Z,22.55
2022-08-07T21:06:55.347Z,22.49
2022-08-07T21:09:52.453Z,22.44
2022-08-07T21:12:29.131Z,22.36
2022-08-07T21:15:02.448Z,22.31
2022-08-07T21:18:02.796Z,22.30
2022-08-07T21:20:29.799Z,22.29
2022-08-07T21:23:08.198Z,22.23
2022-08-07T21:26:03.721Z,22.23
2022-08-07T21:28:48.567Z,22.21
2022-08-07T21:32:42.465Z,22.22
2022-08-07T21:34:48.279Z,22.19
2022-08-07T21:37:23.386Z,22.16
2022-08-07T21:40:04.497Z,22.09
2022-08-07T21:42:53.002Z,22.03
2022-08-07T21:46:08.199Z,21.90
2022-08-07T21:48:33.541Z,21.81
2022-08-07T21:51:08.135Z,21.71
2022-08-07T21:53:52.734Z,21.64
2022-08-07T21:56:49.646Z,21.56
2022-08-07T22:00:02.929Z,21.49
2022-08-07T22:02:41.198Z,21.41
2022-08-07T22:05:44.019Z,21.37
2022-08-07T22:08:01.773Z,21.34
2022-08-07T22:10:32.815Z,21.29
2022-08-07T22:13:09.394Z,21.27
2022-08-07T22:16:40.196Z,21.29
2022-08-07T22:18:43.309Z,21.26
2022-08-07T22:21:20.315Z,21.24
2022-08-07T22:24:00.421Z,21.19
2022-08-07T22:26:36.717Z,21.10
2022-08-07T22:29:13.984Z,20.95
2022-08-07T22:32:06.055Z,20.82
2022-08-07T22:34:56.603Z,20.74
2022-08-07T22:38:04.640Z,20.70
2022-08-07T22:40:51.401Z,20.66
2022-08-07T22:43:41.612Z,20.62
2022-08-07T22:46:42.984Z,20.57
2022-08-07T22:49:09.555Z,20.56
2022-08-07T22:51:49.248Z,20.51
2022-08-07T22:54:56.674Z,20.51
2022-08-07T22:57:40.992Z,20.44
2022-08-07T23:00:29.242Z,20.41
2022-08-07T23:02:58.976Z,20.40
2022-08-07T23:06:10.127Z,20.32
2022-08-07T23:08:58.489Z,20.25
2022-08-07T23:11:46.319Z,20.14
2022-08-07T23:14:22.719Z,20.03
2022-08-07T23:17:08.470Z,19.96
2022-08-07T23:20:51.332Z,19.96
2022-08-07T23:24:06.624Z,19.94
2022-08-07T23:26:25.333Z,19.91
2022-08-07T23:29:42.891Z,19.86
2022-08-07T23:34:23.334Z,19.79
2022-08-07T23:34:57.332Z,19.74
2022-08-07T23:38:06.251Z,19.63
2022-08-07T23:40:50.894Z,19.54
2022-08-07T23:43:40.021Z,19.43
2022-08-07T23:47:09.770Z,19.34
2022-08-07T23:49:55.087Z,19.28
2022-08-07T23:53:00.908Z,19.23
2022-08-07T23:55:52.382Z,19.20
2022-08-07T23:58:38.743Z,19.18
